Alexandria, Minnesota
Current Conditions -  °F | °C
As of 6:53 PM on Saturday 20 Dec 2014 (Local Time) from KAXN Reporting Station
Haze Haze  
Wind Chill: -8°   Ceiling: 500
Heat Index: -1°   Visibility: 6mi
Dew Point: -3°   Wind: 20mph
Humidity: 88%   Direction: 170°S
Pressure: 30"   Gusts: 24mph
Location:  45.89°N, 95.37°W
Report Text: KAXN 210053Z AUTO 17017G21KT 6SM BR OVC005 M01/M03 A3000 RMK AO2 SLP177 T10111028
Loading
Personal Weather Stations






























Interactive Weather Map New forecast layout! Learn more

10-Day Weather Forecast

Advertisements
Track Severe Weather on mobile